EW5603 Shelton CT US current weather conditions

sailwx.info

Wind from 338 at 6 knots gusting 9

Air temperature 1.1° C
Dewpoint -3.9° C

Last reported at 2019-Dec-06 02:54 UTC.
Time now 2019-Dec-06 03:55 UTC

Location: N 41°18' W 073°05'.
View on Google Maps.

See reports from other nearby stations

  
Tides and Currents Weather Stations Pressure Air Temp Water Temp Dewpoint Dewpoint Depression Visibility Wind Speed Wind Dir Waves Ship Positions
date/time (UTC)wind fromknots sea level pressurealtimeterstation pressurevisibilityair tempwater tempwave heightnotes
2019-Dec-06 03:34 293 2 gusting 6 1.1
2019-Dec-06 03:29 293 3 gusting 7 1.1
2019-Dec-06 03:24 270 2 gusting 5 1.1
2019-Dec-06 03:19 293 3 gusting 6 1.1
2019-Dec-06 03:14 1.1
2019-Dec-06 03:09 293 6 gusting 10 1.1
2019-Dec-06 03:04 293 7 gusting 11 1.1
2019-Dec-06 02:59 315 8 gusting 11 1.1
2019-Dec-06 02:54 338 6 gusting 9 1.1
2019-Dec-06 02:49 293 5 gusting 8 1.1
2019-Dec-06 02:44 270 5 gusting 6 1.1
2019-Dec-06 02:39 293 4 gusting 7 1.1
2019-Dec-06 02:34 293 4 gusting 6 1.1
2019-Dec-06 02:29 270 6 gusting 10 1.1
2019-Dec-06 02:24 293 4 gusting 8 1.1
2019-Dec-06 02:19 293 4 gusting 6 1.1
2019-Dec-06 02:14 293 5 gusting 7 1.1
2019-Dec-06 02:09 270 4 gusting 6 1.1
2019-Dec-06 02:04 270 4 gusting 6 1.7
2019-Dec-06 01:59 293 4 gusting 6 1.7
2019-Dec-06 01:54 293 3 gusting 5 1.7
2019-Dec-06 01:49 270 4 gusting 6 1.7
2019-Dec-06 01:44 293 5 gusting 12 1.7
2019-Dec-06 01:39 270 5 gusting 6 1.7
2019-Dec-06 01:34 293 2 gusting 4 1.7
2019-Dec-06 01:29 270 6 gusting 8 1.7
2019-Dec-06 01:24 315 3 gusting 4 1.7
2019-Dec-06 01:19 293 7 gusting 11 1.7
2019-Dec-06 01:14 293 4 gusting 8 2.2
2019-Dec-06 01:09 270 8 gusting 13 2.2
2019-Dec-06 01:05 293 6 gusting 8 2.2
2019-Dec-06 00:59 293 6 gusting 10 2.2
2019-Dec-06 00:54 315 7 gusting 11 2.2
2019-Dec-06 00:49 293 6 gusting 10 2.2
2019-Dec-06 00:44 293 5 gusting 7 2.2
2019-Dec-06 00:39 315 5 gusting 7 2.2
2019-Dec-06 00:34 270 6 gusting 7 2.2
2019-Dec-06 00:29 293 7 gusting 10 2.2
2019-Dec-06 00:24 293 2 gusting 5 2.2
2019-Dec-06 00:19 293 4 gusting 9 2.2
2019-Dec-06 00:14 270 4 gusting 7 2.2
2019-Dec-06 00:09 270 3 gusting 5 2.2
2019-Dec-06 00:05 338 2 gusting 5 2.2
2019-Dec-06 00:00 293 4 gusting 6 2.2
2019-Dec-05 23:54 293 6 gusting 11 2.2
2019-Dec-05 23:50 293 5 gusting 7 2.2
2019-Dec-05 23:44 315 2 gusting 4 2.2
2019-Dec-05 23:39 338 3 gusting 5 2.2
2019-Dec-05 23:34 293 2 gusting 4 2.2
2019-Dec-05 23:29 293 5 gusting 6 2.2
2019-Dec-05 23:24 338 3 gusting 4 2.2
2019-Dec-05 23:19 315 4 gusting 6 2.2
2019-Dec-05 23:14 293 4 gusting 6 2.2
2019-Dec-05 23:09 270 2 gusting 4 2.2
2019-Dec-05 23:04 293 2 gusting 3 2.2
2019-Dec-05 22:59 293 2 gusting 6 2.2
2019-Dec-05 22:54 270 6 gusting 10 2.2
2019-Dec-05 22:49 293 3 gusting 6 2.2
2019-Dec-05 22:44 293 4 gusting 6 2.2
2019-Dec-05 22:39 293 5 gusting 6 2.2
2019-Dec-05 22:34 293 7 gusting 12 2.8
2019-Dec-05 22:29 293 7 gusting 9 2.8
2019-Dec-05 22:24 315 8 gusting 13 2.8
2019-Dec-05 22:19 315 7 gusting 10 2.8
2019-Dec-05 22:14 293 7 gusting 18 2.8
2019-Dec-05 22:09 315 6 gusting 8 2.8
2019-Dec-05 22:04 315 5 gusting 9 2.8
2019-Dec-05 22:00 270 4 gusting 6 2.8
2019-Dec-05 21:54 270 6 gusting 8 3.3
2019-Dec-05 21:49 293 6 gusting 9 3.3
2019-Dec-05 21:44 315 6 gusting 11 3.3
2019-Dec-05 21:39 293 6 gusting 10 3.3
2019-Dec-05 21:34 293 7 gusting 10 3.3
2019-Dec-05 21:29 315 4 gusting 6 3.3
2019-Dec-05 21:24 293 6 gusting 9 3.3
2019-Dec-05 21:19 315 3 gusting 6 3.3
2019-Dec-05 21:14 293 5 gusting 7 3.3
2019-Dec-05 21:09 315 5 gusting 7 3.3
2019-Dec-05 21:05 293 6 gusting 12 3.3
2019-Dec-05 20:59 315 5 gusting 9 3.3
2019-Dec-05 20:54 270 7 gusting 13 3.3
2019-Dec-05 20:49 293 6 gusting 8 3.3
2019-Dec-05 20:44 293 6 gusting 9 3.3
2019-Dec-05 20:39 315 4 gusting 8 3.9
2019-Dec-05 20:34 270 2 gusting 5 3.9
2019-Dec-05 20:29 293 6 gusting 9 3.9
2019-Dec-05 20:24 270 6 gusting 10 3.9
2019-Dec-05 20:19 317 2 3.9
2019-Dec-05 20:14 315 4 gusting 8 3.9
2019-Dec-05 20:09 3.9
2019-Dec-05 20:04 293 4 gusting 7 3.9
2019-Dec-05 19:59 293 4 gusting 6 3.9
2019-Dec-05 19:54 293 4 gusting 8 3.9
2019-Dec-05 19:49 293 6 gusting 11 3.9
2019-Dec-05 19:44 315 6 gusting 10 3.9
2019-Dec-05 19:39 315 5 gusting 7 3.9
2019-Dec-05 19:34 293 7 gusting 12 3.9
2019-Dec-05 19:30 315 6 gusting 10 3.9
2019-Dec-05 19:24 338 4 gusting 6 3.3
2019-Dec-05 19:19 293 4 gusting 9 3.3
2019-Dec-05 19:14 315 5 gusting 8 3.3
2019-Dec-05 19:09 315 7 gusting 10 3.3
2019-Dec-05 19:04 293 6 gusting 10 3.3
2019-Dec-05 18:59 293 6 gusting 8 3.3
2019-Dec-05 18:55 315 6 gusting 8 3.3
2019-Dec-05 18:49 293 6 gusting 11 3.3
2019-Dec-05 18:44 315 6 gusting 11 3.3
2019-Dec-05 18:39 315 6 gusting 10 3.3
2019-Dec-05 18:34 338 7 gusting 14 3.3
2019-Dec-05 18:29 293 7 gusting 10 3.9
2019-Dec-05 18:24 293 7 gusting 14 3.9
2019-Dec-05 18:19 293 7 gusting 12 3.9
2019-Dec-05 18:14 293 5 gusting 7 3.9
2019-Dec-05 18:09 270 6 gusting 9 3.9
2019-Dec-05 18:04 293 6 gusting 12 3.9
2019-Dec-05 17:59 293 2 gusting 5 3.9
2019-Dec-05 17:54 293 5 gusting 6 3.9
2019-Dec-05 17:49 293 6 gusting 10 3.9
2019-Dec-05 17:44 293 4 gusting 6 3.9
2019-Dec-05 17:39 293 4 gusting 7 3.9
2019-Dec-05 17:34 293 6 gusting 9 3.9
2019-Dec-05 17:29 293 7 gusting 13 3.9
2019-Dec-05 17:24 293 8 gusting 14 3.9
2019-Dec-05 17:19 293 6 gusting 10 3.9
2019-Dec-05 17:14 338 4 gusting 7 3.9
2019-Dec-05 17:09 293 6 gusting 9 3.9
2019-Dec-05 17:04 338 5 gusting 10 3.9
2019-Dec-05 16:59 293 3 gusting 6 3.9
2019-Dec-05 16:54 293 5 gusting 9 3.9
2019-Dec-05 16:49 270 2 gusting 7 4.4
2019-Dec-05 16:44 293 6 gusting 10 4.4
2019-Dec-05 16:39 293 5 gusting 8 4.4
2019-Dec-05 16:34 293 6 gusting 11 4.4
2019-Dec-05 16:29 293 8 gusting 11 4.4
2019-Dec-05 16:24 293 11 gusting 17 4.4
2019-Dec-05 16:19 315 7 gusting 17 4.4
2019-Dec-05 16:14 338 7 gusting 13 5.0
2019-Dec-05 16:09 293 6 gusting 12 5.0
2019-Dec-05 16:04 293 9 gusting 13 4.4
2019-Dec-05 15:59 270 4 gusting 9 5.0
2019-Dec-05 15:54 293 6 gusting 9 5.0
2019-Dec-05 15:49 293 9 gusting 14 4.4
2019-Dec-05 15:44 293 6 gusting 10 4.4
2019-Dec-05 15:39 293 9 gusting 13 4.4
2019-Dec-05 15:34 293 4 gusting 7 4.4
2019-Dec-05 15:29 270 9 gusting 11 4.4
2019-Dec-05 15:24 293 6 gusting 11 4.4
2019-Dec-05 15:19 315 3 gusting 6 4.4
2019-Dec-05 15:14 293 2 gusting 6 3.9
2019-Dec-05 15:09 293 4 gusting 8 3.9
2019-Dec-05 15:04 248 4 gusting 6 3.9
2019-Dec-05 14:59 315 6 gusting 11 3.9
2019-Dec-05 14:54 302 1 3.3
2019-Dec-05 14:49 293 4 gusting 7 3.3
2019-Dec-05 14:44 270 4 gusting 6 3.3
2019-Dec-05 14:39 293 2 gusting 5 3.3
2019-Dec-05 14:34 293 6 gusting 8 3.3
2019-Dec-05 14:29 270 4 gusting 6 3.3
2019-Dec-05 14:24 338 4 gusting 6 3.3
2019-Dec-05 14:19 315 5 gusting 8 3.3
2019-Dec-05 14:14 293 5 gusting 8 2.8
2019-Dec-05 14:09 293 6 gusting 12 2.8
2019-Dec-05 14:04 293 6 gusting 8 2.8
2019-Dec-05 13:59 270 1 gusting 2 2.8
2019-Dec-05 13:54 293 4 gusting 6 2.2
2019-Dec-05 13:49 293 6 gusting 7 2.2
2019-Dec-05 13:44 270 6 gusting 12 1.7
2019-Dec-05 13:39 293 5 gusting 11 1.7
2019-Dec-05 13:34 270 4 gusting 9 1.1
2019-Dec-05 13:29 270 3 gusting 6 1.1
2019-Dec-05 13:24 315 1 gusting 2 0.6
2019-Dec-05 13:19 293 6 gusting 8 0.6
2019-Dec-05 13:14 293 5 gusting 7 0.6
2019-Dec-05 13:09 -0.0
2019-Dec-05 13:04 315 1 gusting 2 -0.0
2019-Dec-05 12:59 315 0 gusting 1 0.6
2019-Dec-05 12:54 315 0 gusting 0 -0.0
2019-Dec-05 12:49 315 1 gusting 2 -0.0
2019-Dec-05 12:44 315 1 gusting 2 -0.0
2019-Dec-05 12:39 315 0 gusting 1 -0.0
2019-Dec-05 12:34 -0.0
2019-Dec-05 12:29 315 0 gusting 1 -0.0
2019-Dec-05 12:24 315 0 gusting 0 -0.0
2019-Dec-05 12:19 315 0 gusting 0 -0.0
2019-Dec-05 12:14 315 0 gusting 1 -0.0
2019-Dec-05 12:09 -0.0
2019-Dec-05 12:04 315 0 gusting 0 -0.0
2019-Dec-05 11:59 315 0 gusting 0 -0.0
2019-Dec-05 11:54 315 0 gusting 1 -0.0
2019-Dec-05 11:49 315 0 gusting 1 -0.0
2019-Dec-05 11:44 315 0 gusting 1 -0.0
2019-Dec-05 11:39 315 0 gusting 1 -0.0
2019-Dec-05 11:34 338 0 gusting 1 -0.0
2019-Dec-05 11:29 315 0 gusting 1 -0.0
2019-Dec-05 11:24 315 1 gusting 2 -0.0
2019-Dec-05 11:19 338 0 gusting 1 -0.0
2019-Dec-05 11:14 338 1 gusting 1 -0.0
2019-Dec-05 11:09 338 0 gusting 1 -0.0
2019-Dec-05 11:04 338 1 gusting 2 -0.0
2019-Dec-05 10:59 338 1 gusting 3 -0.0
2019-Dec-05 10:54 338 1 gusting 2 -0.0
2019-Dec-05 10:49 0.6
2019-Dec-05 10:44 0.6
2019-Dec-05 10:39 338 2 gusting 4 0.6
2019-Dec-05 10:34 315 1 gusting 3 -0.0
2019-Dec-05 10:29 293 2 gusting 5 -0.0
2019-Dec-05 10:24 315 2 gusting 5 -0.0
2019-Dec-05 10:19 338 0 gusting 2 -0.0
2019-Dec-05 10:14 293 1 gusting 2 -0.0
2019-Dec-05 10:09 338 4 gusting 7 -0.0
2019-Dec-05 10:04 338 2 gusting 3 -0.6
2019-Dec-05 09:59 315 1 gusting 2 -0.6
2019-Dec-05 09:54 315 1 gusting 1 -0.6
2019-Dec-05 09:49 293 1 gusting 2 -0.6
2019-Dec-05 09:44 293 1 gusting 2 -0.0
2019-Dec-05 09:39 338 0 gusting 1 -0.0
2019-Dec-05 09:34 315 1 gusting 2 -0.0
2019-Dec-05 09:29 293 1 gusting 1 -0.0
2019-Dec-05 09:24 315 1 gusting 2 -0.0
2019-Dec-05 09:19 315 0 gusting 1 -0.0
2019-Dec-05 09:14 315 0 gusting 1 -0.0
2019-Dec-05 09:09 293 1 gusting 2 -0.0
2019-Dec-05 09:04 293 1 gusting 2 -0.0
2019-Dec-05 08:59 315 0 gusting 1 -0.0
2019-Dec-05 08:54 315 1 gusting 1 -0.0
2019-Dec-05 08:49 315 0 gusting 1 -0.0
2019-Dec-05 08:44 315 0 gusting 1 -0.0
2019-Dec-05 08:39 315 0 gusting 1 -0.0
2019-Dec-05 08:34 -0.0
2019-Dec-05 08:30 315 0 gusting 1 -0.0
2019-Dec-05 08:24 315 0 gusting 1 -0.0
2019-Dec-05 08:19 315 0 gusting 1 -0.0
2019-Dec-05 08:14 315 0 gusting 1 -0.0
2019-Dec-05 08:09 -0.0
2019-Dec-05 08:04 315 0 gusting 0 0.6
2019-Dec-05 07:59 0.6
2019-Dec-05 07:54 0.6
2019-Dec-05 07:49 270 0 gusting 1 0.6
2019-Dec-05 07:44 0.6
2019-Dec-05 07:39 270 0 gusting 1 0.6
2019-Dec-05 07:34 293 0 gusting 0 0.6
2019-Dec-05 07:29 293 0 gusting 1 0.6
2019-Dec-05 07:24 0.6
2019-Dec-05 07:19 293 0 gusting 1 0.6
2019-Dec-05 07:14 0.6
2019-Dec-05 07:09 0.6
2019-Dec-05 07:04 0.6
2019-Dec-05 07:00 315 0 gusting 0 0.6
2019-Dec-05 06:54 315 0 gusting 1 0.6
2019-Dec-05 06:49 293 1 gusting 2 0.6
2019-Dec-05 06:44 270 0 gusting 1 0.6
2019-Dec-05 06:39 293 1 gusting 2 0.6
2019-Dec-05 06:34 315 0 gusting 2 0.6
2019-Dec-05 06:29 0.6
2019-Dec-05 06:25 -0.0
2019-Dec-05 06:19 -0.0
2019-Dec-05 06:14 -0.0
2019-Dec-05 06:09 0.6
2019-Dec-05 06:04 0.6
2019-Dec-05 05:59 0.6
2019-Dec-05 05:54 0.6
2019-Dec-05 05:49 0.6
2019-Dec-05 05:44 338 1 gusting 2 0.6
2019-Dec-05 05:39 248 1 gusting 2 0.6
2019-Dec-05 05:34 0.6
2019-Dec-05 05:29 248 0 gusting 1 -0.0
2019-Dec-05 05:24 270 0 gusting 0 -0.0
2019-Dec-05 05:19 293 0 gusting 1 -0.0
2019-Dec-05 05:14 293 0 gusting 1 -0.0
2019-Dec-05 05:09 270 0 gusting 1 -0.0
2019-Dec-05 05:04 270 0 gusting 2 -0.0
2019-Dec-05 04:59 248 0 gusting 1 -0.0
2019-Dec-05 04:54 225 0 gusting 1 -0.0
2019-Dec-05 04:49 -0.0
2019-Dec-05 04:44 -0.0
2019-Dec-05 04:39 -0.0
2019-Dec-05 04:34 225 0 gusting 0 -0.0
2019-Dec-05 04:29 225 0 gusting 1 -0.0
2019-Dec-05 04:24 -0.0
2019-Dec-05 04:19 -0.0
2019-Dec-05 04:14 -0.0
2019-Dec-05 04:09 -0.0
2019-Dec-05 04:04 -0.0
2019-Dec-05 03:59 -0.0
2019-Dec-05 03:54 -0.0
2019-Dec-05 03:49 -0.0
2019-Dec-05 03:44 225 0 gusting 0 -0.0
2019-Dec-05 03:39 -0.0
2019-Dec-05 03:34 -0.0
2019-Dec-05 03:29 -0.0
2019-Dec-05 03:24 -0.0
2019-Dec-05 03:19 -0.0
2019-Dec-05 03:14 -0.0
2019-Dec-05 03:09 -0.0
2019-Dec-05 03:04 -0.0
2019-Dec-05 02:59 -0.0
2019-Dec-05 02:54 -0.0
2019-Dec-05 02:49 203 0 gusting 0 -0.0
2019-Dec-05 02:44 -0.0
2019-Dec-05 02:39 -0.0
2019-Dec-05 02:34 -0.0
2019-Dec-05 02:29 -0.0
2019-Dec-05 02:24 -0.0
2019-Dec-05 02:19 -0.0
2019-Dec-05 02:14 -0.0
2019-Dec-05 02:09 -0.0
2019-Dec-05 02:04 338 0 gusting 1 -0.0
2019-Dec-05 01:59 0.6
2019-Dec-05 01:54 315 0 gusting 1 0.6
2019-Dec-05 01:49 315 1 gusting 1 0.6
2019-Dec-05 01:44 338 0 gusting 1 0.6
2019-Dec-05 01:39 338 0 gusting 2 0.6
2019-Dec-05 01:34 0.6
2019-Dec-05 01:29 0.6
2019-Dec-05 01:24 0.6
2019-Dec-05 01:19 338 0 gusting 1 0.6
2019-Dec-05 01:14 338 0 gusting 1 0.6
2019-Dec-05 01:09 0.6
2019-Dec-05 01:04 0.6
2019-Dec-05 00:59 0.6
2019-Dec-05 00:54 0.6
2019-Dec-05 00:49 0.6
2019-Dec-05 00:44 0.6
2019-Dec-05 00:39 1.1
2019-Dec-05 00:34 315 0 gusting 0 1.1
2019-Dec-05 00:29 1.1
2019-Dec-05 00:24 315 0 gusting 0 1.1
2019-Dec-05 00:19 1.1
2019-Dec-05 00:14 293 0 gusting 2 1.1
2019-Dec-05 00:09 1.1
2019-Dec-05 00:04 1.1
2019-Dec-04 23:59 315 0 gusting 1 1.1
2019-Dec-04 23:54 315 1 gusting 3 1.1
2019-Dec-04 23:49 293 1 gusting 2 1.1
2019-Dec-04 23:44 315 0 gusting 1 1.1
2019-Dec-04 23:39 1.7
2019-Dec-04 23:34 1.7
2019-Dec-04 23:29 270 0 gusting 2 1.7
2019-Dec-04 23:24 315 1 gusting 2 1.7
2019-Dec-04 23:19 1.7
2019-Dec-04 23:14 270 0 gusting 1 1.1
2019-Dec-04 23:09 270 1 gusting 2 1.1
2019-Dec-04 23:04 270 0 gusting 2 1.7
2019-Dec-04 22:59 270 0 gusting 0 1.7
2019-Dec-04 22:54 338 0 gusting 1 1.7
2019-Dec-04 22:49 270 1 gusting 3 1.7
2019-Dec-04 22:44 270 0 gusting 1 1.7
2019-Dec-04 22:39 293 3 gusting 6 1.7
2019-Dec-04 22:34 270 1 gusting 4 1.7
2019-Dec-04 22:30 270 2 gusting 3 1.7
2019-Dec-04 22:24 293 3 gusting 6 1.7
2019-Dec-04 22:19 270 1 gusting 2 1.7
2019-Dec-04 22:14 248 1 gusting 3 2.2
2019-Dec-04 22:09 270 2 gusting 5 2.2
2019-Dec-04 22:04 270 2 gusting 5 2.2
2019-Dec-04 21:59 270 1 gusting 2 2.2
2019-Dec-04 21:54 2.2
2019-Dec-04 21:49 270 3 gusting 6 2.2
2019-Dec-04 21:44 270 3 gusting 5 2.2
2019-Dec-04 21:39 270 3 gusting 4 2.2
2019-Dec-04 21:34 270 1 gusting 2 2.2
2019-Dec-04 21:29 270 3 gusting 5 2.2
2019-Dec-04 21:24 270 1 gusting 3 2.2
2019-Dec-04 21:19 270 1 gusting 2 2.2
2019-Dec-04 21:14 270 1 gusting 3 2.2
2019-Dec-04 21:09 293 2 gusting 3 2.2
2019-Dec-04 21:04 270 1 gusting 3 2.2
2019-Dec-04 20:59 270 2 gusting 3 2.2
2019-Dec-04 20:54 270 2 gusting 3 2.8
2019-Dec-04 20:49 270 1 gusting 3 2.8
2019-Dec-04 20:44 270 4 gusting 5 2.8
2019-Dec-04 20:39 293 3 gusting 6 2.8
2019-Dec-04 20:34 293 5 gusting 7 2.8
2019-Dec-04 20:29 293 1 gusting 2 2.8
2019-Dec-04 20:24 270 2 gusting 2 2.8
2019-Dec-04 20:19 293 2 gusting 4 2.8
2019-Dec-04 20:14 293 1 gusting 2 2.8
2019-Dec-04 20:09 270 1 gusting 3 2.8
2019-Dec-04 20:04 293 2 gusting 3 2.8
2019-Dec-04 20:00 270 0 gusting 2 2.8
2019-Dec-04 19:54 270 3 gusting 6 2.8
2019-Dec-04 19:49 270 1 gusting 2 2.8
2019-Dec-04 19:44 293 4 gusting 6 2.8
2019-Dec-04 19:39 293 1 gusting 3 2.8
2019-Dec-04 19:34 270 1 gusting 3 2.8
2019-Dec-04 19:29 315 0 gusting 1 2.8
2019-Dec-04 19:24 293 3 gusting 5 2.8
2019-Dec-04 19:19 270 5 gusting 6 2.2
2019-Dec-04 19:14 293 5 gusting 7 2.8
2019-Dec-04 19:09 293 0 gusting 1 2.8
2019-Dec-04 19:04 293 1 gusting 2 2.2
2019-Dec-04 18:59 293 5 gusting 8 2.8
2019-Dec-04 18:54 293 1 gusting 2 2.8
2019-Dec-04 18:49 270 3 gusting 6 2.8
2019-Dec-04 18:44 293 1 gusting 2 2.8
2019-Dec-04 18:39 293 1 gusting 2 2.8
2019-Dec-04 18:34 293 1 gusting 2 2.2
2019-Dec-04 18:29 270 2 gusting 3 2.2
2019-Dec-04 18:24 270 4 gusting 6 2.2
2019-Dec-04 18:19 315 2 gusting 4 2.2
2019-Dec-04 18:14 270 1 gusting 3 2.2
2019-Dec-04 18:10 270 1 gusting 2 2.2
2019-Dec-04 18:04 315 2 gusting 3 2.2
2019-Dec-04 18:00 270 2 gusting 3 2.2
2019-Dec-04 17:54 270 1 gusting 3 2.2
2019-Dec-04 17:49 248 3 gusting 6 2.2
2019-Dec-04 17:44 270 2 gusting 4 2.2
2019-Dec-04 17:39 270 3 gusting 6 2.2
2019-Dec-04 17:34 270 2 gusting 4 1.7
2019-Dec-04 17:29 293 2 gusting 3 1.7
2019-Dec-04 17:24 270 1 gusting 3 1.7
2019-Dec-04 17:19 293 5 gusting 8 1.7
2019-Dec-04 17:14 270 4 gusting 8 1.7
2019-Dec-04 17:09 270 2 gusting 3 1.7
2019-Dec-04 17:04 248 2 gusting 6 1.7
2019-Dec-04 16:59 270 1 gusting 3 1.7
2019-Dec-04 16:54 270 3 gusting 6 1.7
2019-Dec-04 16:49 270 1 gusting 2 1.7
2019-Dec-04 16:44 293 1 gusting 3 1.7
2019-Dec-04 16:39 293 0 gusting 1 1.7
2019-Dec-04 16:34 293 1 gusting 2 1.7
2019-Dec-04 16:29 338 1 gusting 1 1.7
2019-Dec-04 16:24 293 1 gusting 2 1.7
2019-Dec-04 16:19 315 4 gusting 6 1.1
2019-Dec-04 16:14 315 1 gusting 3 1.1
2019-Dec-04 16:09 293 2 gusting 5 1.1
2019-Dec-04 16:04 293 5 gusting 6 1.1
2019-Dec-04 15:59 270 1 gusting 2 1.1
2019-Dec-04 15:54 1.1
2019-Dec-04 15:49 270 1 gusting 2 1.1
2019-Dec-04 15:44 1.1
2019-Dec-04 15:39 338 0 gusting 1 0.6
2019-Dec-04 15:34 315 0 gusting 1 0.6
2019-Dec-04 15:29 315 0 gusting 2 0.6
2019-Dec-04 15:24 293 1 gusting 2 0.6
2019-Dec-04 15:19 315 1 gusting 1 0.6
2019-Dec-04 15:14 315 0 gusting 1 0.6
2019-Dec-04 15:09 0.6
2019-Dec-04 15:04 -0.0
2019-Dec-04 14:59 293 2 gusting 5 -0.0
2019-Dec-04 14:54 293 2 gusting 5 -0.0
2019-Dec-04 14:49 293 1 gusting 2 -0.0
2019-Dec-04 14:44 293 3 gusting 5 -0.0
2019-Dec-04 14:39 270 1 gusting 2 -0.0
2019-Dec-04 14:34 315 1 gusting 2 -0.0
2019-Dec-04 14:29 293 1 gusting 2 -0.0
2019-Dec-04 14:24 293 1 gusting 3 -0.0
2019-Dec-04 14:19 293 1 gusting 3 -0.6
2019-Dec-04 14:14 293 2 gusting 2 -0.6
2019-Dec-04 14:09 293 0 gusting 2 -0.6
2019-Dec-04 14:04 293 0 gusting 1 -0.6
2019-Dec-04 13:59 -0.6
2019-Dec-04 13:54 -0.6
2019-Dec-04 13:49 -1.1
2019-Dec-04 13:44 -1.1
2019-Dec-04 13:39 293 0 gusting 1 -1.1
2019-Dec-04 13:34 270 1 gusting 2 -1.1
2019-Dec-04 13:29 293 1 gusting 2 -1.1
2019-Dec-04 13:24 293 1 gusting 2 -1.7
2019-Dec-04 13:19 315 1 gusting 2 -1.7
2019-Dec-04 13:14 -1.7
2019-Dec-04 13:09 338 0 gusting 0 -1.7
2019-Dec-04 13:04 338 0 gusting 0 -1.7
2019-Dec-04 12:59 -2.2
2019-Dec-04 12:54 -2.2
2019-Dec-04 12:49 -2.2
2019-Dec-04 12:44 -2.2
2019-Dec-04 12:39 -2.2
2019-Dec-04 12:34 -2.2
2019-Dec-04 12:29 338 0 gusting 1 -2.2
2019-Dec-04 12:24 -2.2
2019-Dec-04 12:19 -2.2
2019-Dec-04 12:14 -2.2
2019-Dec-04 12:09 -2.2
2019-Dec-04 12:04 -2.2
2019-Dec-04 11:59 338 0 gusting 0 -2.2
2019-Dec-04 11:54 338 0 gusting 0 -2.2
2019-Dec-04 11:49 -2.8
2019-Dec-04 11:44 338 0 gusting 0 -2.2
2019-Dec-04 11:39 -2.2
2019-Dec-04 11:34 -2.2
2019-Dec-04 11:29 -2.2
2019-Dec-04 11:24 338 0 gusting 1 -2.2
2019-Dec-04 11:19 338 0 gusting 1 -2.2
2019-Dec-04 11:14 -2.2
2019-Dec-04 11:09 -2.2
2019-Dec-04 11:04 -2.2
2019-Dec-04 10:59 338 0 gusting 0 -2.2
2019-Dec-04 10:54 -2.2
2019-Dec-04 10:49 -2.2
2019-Dec-04 10:44 338 0 gusting 0 -2.2
2019-Dec-04 10:39 -2.2
2019-Dec-04 10:34 338 0 gusting 2 -2.2
2019-Dec-04 10:29 315 1 gusting 1 -2.2
2019-Dec-04 10:24 -2.2
2019-Dec-04 10:19 -2.2
2019-Dec-04 10:14 315 1 gusting 2 -2.2
2019-Dec-04 10:09 293 2 gusting 3 -2.2
2019-Dec-04 10:04 338 1 gusting 3 -2.2
2019-Dec-04 09:59 315 2 gusting 3 -2.2
2019-Dec-04 09:54 315 0 gusting 2 -2.2
2019-Dec-04 09:49 -2.2
2019-Dec-04 09:44 270 0 gusting 1 -2.2
2019-Dec-04 09:39 -2.2
2019-Dec-04 09:34 -2.2
2019-Dec-04 09:29 -2.2
2019-Dec-04 09:24 -2.2
2019-Dec-04 09:19 -2.2
2019-Dec-04 09:14 -2.2
2019-Dec-04 09:09 270 1 gusting 2 -2.2
2019-Dec-04 09:04 270 0 gusting 1 -2.2
2019-Dec-04 08:59 293 1 gusting 1 -2.2
2019-Dec-04 08:54 293 1 gusting 1 -2.2
2019-Dec-04 08:49 293 0 gusting 2 -2.2
2019-Dec-04 08:44 293 0 gusting 1 -2.2
2019-Dec-04 08:39 293 3 gusting 4 -2.2
2019-Dec-04 08:34 338 1 gusting 3 -2.2
2019-Dec-04 08:29 315 1 gusting 2 -2.2
2019-Dec-04 08:24 315 2 gusting 3 -2.2
2019-Dec-04 08:19 293 3 gusting 5 -2.2
2019-Dec-04 08:14 293 2 gusting 3 -2.8
2019-Dec-04 08:09 315 2 gusting 5 -2.8
2019-Dec-04 08:04 338 1 gusting 3 -2.8
2019-Dec-04 07:59 315 4 gusting 6 -2.8
2019-Dec-04 07:54 324 1 -2.8
2019-Dec-04 07:50 315 3 gusting 6 -2.8
2019-Dec-04 07:44 023 2 gusting 4 -2.8
2019-Dec-04 07:39 315 2 gusting 6 -2.8
2019-Dec-04 07:34 -2.2
2019-Dec-04 07:29 315 2 gusting 3 -2.2
2019-Dec-04 07:24 338 1 gusting 2 -2.2
2019-Dec-04 07:19 315 0 gusting 2 -2.2
2019-Dec-04 07:14 338 2 gusting 4 -2.2
2019-Dec-04 07:09 315 3 gusting 6 -2.2
2019-Dec-04 07:04 293 3 gusting 5 -2.2
2019-Dec-04 06:59 315 3 gusting 5 -2.2
2019-Dec-04 06:54 293 5 gusting 9 -2.2
2019-Dec-04 06:49 023 1 gusting 4 -2.2
2019-Dec-04 06:44 338 2 gusting 4 -2.2
2019-Dec-04 06:39 338 1 gusting 3 -2.2
2019-Dec-04 06:34 -2.2
2019-Dec-04 06:29 338 3 gusting 6 -2.2
2019-Dec-04 06:24 338 4 gusting 6 -2.2
2019-Dec-04 06:19 315 1 gusting 2 -2.2
2019-Dec-04 06:14 338 3 gusting 4 -2.2
2019-Dec-04 06:09 315 3 gusting 6 -2.2
2019-Dec-04 06:04 293 2 gusting 4 -2.2
2019-Dec-04 06:00 315 2 gusting 4 -2.8
2019-Dec-04 05:54 270 4 gusting 7 -2.8
2019-Dec-04 05:49 293 2 gusting 2 -2.8
2019-Dec-04 05:44 -2.8
2019-Dec-04 05:39 293 0 gusting 0 -2.8
2019-Dec-04 05:34 293 0 gusting 0 -2.8
2019-Dec-04 05:29 293 1 gusting 2 -2.8
2019-Dec-04 05:24 315 1 gusting 2 -2.8
2019-Dec-04 05:19 270 1 gusting 2 -2.8
2019-Dec-04 05:14 270 1 gusting 2 -2.8
2019-Dec-04 05:09 315 1 gusting 2 -2.2
2019-Dec-04 05:04 293 1 gusting 2 -2.2
2019-Dec-04 04:59 315 1 gusting 2 -2.2
2019-Dec-04 04:54 315 1 gusting 2 -2.2
2019-Dec-04 04:49 -2.2
2019-Dec-04 04:44 293 1 gusting 3 -2.2
2019-Dec-04 04:39 293 2 gusting 4 -2.2
2019-Dec-04 04:34 293 4 gusting 6 -2.2
2019-Dec-04 04:29 293 3 gusting 6 -2.2
2019-Dec-04 04:24 315 3 gusting 4 -2.2
2019-Dec-04 04:19 293 3 gusting 4 -2.2
2019-Dec-04 04:14 293 2 gusting 3 -2.2
2019-Dec-04 04:09 315 2 gusting 5 -2.2
2019-Dec-04 04:04 293 2 gusting 4 -2.2
2019-Dec-04 03:59 315 3 gusting 6 -2.2
2019-Dec-04 03:54 315 2 gusting 4 -1.7
2019-Dec-04 03:49 293 2 gusting 3 -1.7
2019-Dec-04 03:44 293 2 gusting 3 -1.7
2019-Dec-04 03:39 270 2 gusting 4 -1.7
2019-Dec-04 03:34 293 3 gusting 6 -1.7
2019-Dec-04 03:29 293 4 gusting 6 -1.7
2019-Dec-04 03:24 293 4 gusting 6 -1.7
2019-Dec-04 03:19 293 3 gusting 5 -1.7
2019-Dec-04 03:14 293 2 gusting 5 -1.7
2019-Dec-04 03:09 293 3 gusting 3 -1.7
2019-Dec-04 03:04 293 3 gusting 6 -1.7